sensor_id;sensor_type;location;lat;lon;timestamp;pressure;altitude;pressure_sealevel;temperature;humidity
35989;BME280;22064;42.672;23.282;2024-01-30T00:00:45;96583.38;;;-1.95;53.67
35989;BME280;22064;42.672;23.282;2024-01-30T00:03:11;96584.50;;;-1.98;53.90
35989;BME280;22064;42.672;23.282;2024-01-30T00:05:36;96604.34;;;-2.08;53.82
35989;BME280;22064;42.672;23.282;2024-01-30T00:08:02;96601.53;;;-2.23;54.33
35989;BME280;22064;42.672;23.282;2024-01-30T00:10:28;96578.78;;;-2.10;54.25
35989;BME280;22064;42.672;23.282;2024-01-30T00:12:54;96592.25;;;-1.90;53.87
35989;BME280;22064;42.672;23.282;2024-01-30T00:15:20;96598.09;;;-2.06;53.81
35989;BME280;22064;42.672;23.282;2024-01-30T00:17:46;96597.81;;;-2.20;53.83
35989;BME280;22064;42.672;23.282;2024-01-30T00:20:12;96590.97;;;-2.30;54.09
35989;BME280;22064;42.672;23.282;2024-01-30T00:22:38;96596.38;;;-2.23;54.26
35989;BME280;22064;42.672;23.282;2024-01-30T00:25:04;96597.44;;;-2.08;53.36
35989;BME280;22064;42.672;23.282;2024-01-30T00:27:30;96608.31;;;-2.14;54.21
35989;BME280;22064;42.672;23.282;2024-01-30T00:29:56;96591.81;;;-2.29;53.75
35989;BME280;22064;42.672;23.282;2024-01-30T00:32:22;96603.72;;;-2.10;53.79
35989;BME280;22064;42.672;23.282;2024-01-30T00:34:48;96590.66;;;-1.91;53.06
35989;BME280;22064;42.672;23.282;2024-01-30T00:37:14;96602.03;;;-1.75;52.85
35989;BME280;22064;42.672;23.282;2024-01-30T00:39:40;96587.69;;;-2.22;53.58
35989;BME280;22064;42.672;23.282;2024-01-30T00:42:06;96589.06;;;-2.10;53.80
35989;BME280;22064;42.672;23.282;2024-01-30T00:44:35;96592.81;;;-2.40;55.31
35989;BME280;22064;42.672;23.282;2024-01-30T00:47:00;96589.06;;;-2.28;54.35
35989;BME280;22064;42.672;23.282;2024-01-30T00:49:27;96591.34;;;-2.07;54.13
35989;BME280;22064;42.672;23.282;2024-01-30T00:51:52;96595.75;;;-2.17;54.52
35989;BME280;22064;42.672;23.282;2024-01-30T00:54:18;96587.72;;;-2.14;54.08
35989;BME280;22064;42.672;23.282;2024-01-30T00:56:44;96587.59;;;-2.12;54.52
35989;BME280;22064;42.672;23.282;2024-01-30T00:59:11;96579.56;;;-2.09;54.31
35989;BME280;22064;42.672;23.282;2024-01-30T01:01:37;96591.84;;;-2.21;54.36
35989;BME280;22064;42.672;23.282;2024-01-30T01:04:02;96594.44;;;-2.21;55.22
35989;BME280;22064;42.672;23.282;2024-01-30T01:06:28;96598.53;;;-1.92;54.28
35989;BME280;22064;42.672;23.282;2024-01-30T01:08:54;96589.38;;;-1.87;54.48
35989;BME280;22064;42.672;23.282;2024-01-30T01:11:20;96594.31;;;-1.75;53.67
35989;BME280;22064;42.672;23.282;2024-01-30T01:13:46;96588.63;;;-1.53;53.38
35989;BME280;22064;42.672;23.282;2024-01-30T01:16:12;96591.38;;;-1.81;53.71
35989;BME280;22064;42.672;23.282;2024-01-30T01:18:37;96595.81;;;-1.91;54.15
35989;BME280;22064;42.672;23.282;2024-01-30T01:21:03;96585.00;;;-1.94;54.01
35989;BME280;22064;42.672;23.282;2024-01-30T01:23:30;96591.28;;;-1.89;54.49
35989;BME280;22064;42.672;23.282;2024-01-30T01:25:56;96588.94;;;-1.82;54.12
35989;BME280;22064;42.672;23.282;2024-01-30T01:28:22;96601.66;;;-1.81;54.82
35989;BME280;22064;42.672;23.282;2024-01-30T01:30:47;96591.75;;;-1.93;55.23
35989;BME280;22064;42.672;23.282;2024-01-30T01:33:13;96586.41;;;-2.00;55.15
35989;BME280;22064;42.672;23.282;2024-01-30T01:35:40;96584.09;;;-1.85;54.63
35989;BME280;22064;42.672;23.282;2024-01-30T01:38:05;96593.97;;;-1.98;54.77
35989;BME280;22064;42.672;23.282;2024-01-30T01:40:31;96592.94;;;-1.88;54.86
35989;BME280;22064;42.672;23.282;2024-01-30T01:42:57;96595.53;;;-1.80;54.85
35989;BME280;22064;42.672;23.282;2024-01-30T01:45:23;96590.94;;;-1.76;53.90
35989;BME280;22064;42.672;23.282;2024-01-30T01:47:52;96589.28;;;-1.77;54.08
35989;BME280;22064;42.672;23.282;2024-01-30T01:50:18;96587.31;;;-1.83;53.70
35989;BME280;22064;42.672;23.282;2024-01-30T01:52:49;96587.97;;;-2.07;54.07
35989;BME280;22064;42.672;23.282;2024-01-30T01:55:20;96587.56;;;-1.94;53.84
35989;BME280;22064;42.672;23.282;2024-01-30T01:57:52;96590.00;;;-1.93;53.92
35989;BME280;22064;42.672;23.282;2024-01-30T02:00:19;96594.94;;;-1.73;53.22
35989;BME280;22064;42.672;23.282;2024-01-30T02:02:46;96608.81;;;-1.92;53.45
35989;BME280;22064;42.672;23.282;2024-01-30T02:05:12;96591.56;;;-2.00;53.70
35989;BME280;22064;42.672;23.282;2024-01-30T02:07:38;96595.75;;;-2.17;54.34
35989;BME280;22064;42.672;23.282;2024-01-30T02:10:05;96597.84;;;-2.38;54.81
35989;BME280;22064;42.672;23.282;2024-01-30T02:12:31;96605.38;;;-2.55;54.82
35989;BME280;22064;42.672;23.282;2024-01-30T02:14:56;96601.94;;;-2.45;55.09
35989;BME280;22064;42.672;23.282;2024-01-30T02:17:23;96596.34;;;-2.59;55.21
35989;BME280;22064;42.672;23.282;2024-01-30T02:19:49;96594.00;;;-2.34;54.90
35989;BME280;22064;42.672;23.282;2024-01-30T02:22:15;96587.47;;;-2.29;54.58
35989;BME280;22064;42.672;23.282;2024-01-30T02:24:41;96593.13;;;-2.25;54.29
35989;BME280;22064;42.672;23.282;2024-01-30T02:27:07;96591.56;;;-2.36;53.82
35989;BME280;22064;42.672;23.282;2024-01-30T02:29:33;96589.28;;;-2.21;53.69
35989;BME280;22064;42.672;23.282;2024-01-30T02:31:59;96575.81;;;-2.33;54.08
35989;BME280;22064;42.672;23.282;2024-01-30T02:34:25;96594.38;;;-2.29;53.94
35989;BME280;22064;42.672;23.282;2024-01-30T02:36:51;96588.84;;;-2.52;53.79
35989;BME280;22064;42.672;23.282;2024-01-30T02:39:16;96556.06;;;-2.68;54.13
35989;BME280;22064;42.672;23.282;2024-01-30T02:41:43;96582.03;;;-2.43;54.22
35989;BME280;22064;42.672;23.282;2024-01-30T02:44:08;96590.59;;;-2.17;53.95
35989;BME280;22064;42.672;23.282;2024-01-30T02:46:34;96579.22;;;-2.32;53.55
35989;BME280;22064;42.672;23.282;2024-01-30T02:49:00;96585.91;;;-2.39;53.85
35989;BME280;22064;42.672;23.282;2024-01-30T02:51:26;96590.56;;;-2.25;53.55
35989;BME280;22064;42.672;23.282;2024-01-30T02:53:52;96581.97;;;-2.08;53.99
35989;BME280;22064;42.672;23.282;2024-01-30T02:56:17;96584.22;;;-2.13;53.67
35989;BME280;22064;42.672;23.282;2024-01-30T02:58:43;96598.53;;;-1.92;53.05
35989;BME280;22064;42.672;23.282;2024-01-30T03:01:09;96590.28;;;-1.96;52.81
35989;BME280;22064;42.672;23.282;2024-01-30T03:03:35;96593.66;;;-1.95;53.24
35989;BME280;22064;42.672;23.282;2024-01-30T03:06:01;96549.78;;;-2.30;53.34
35989;BME280;22064;42.672;23.282;2024-01-30T03:08:28;96592.53;;;-1.75;52.61
35989;BME280;22064;42.672;23.282;2024-01-30T03:10:53;96578.50;;;-1.98;52.87
35989;BME280;22064;42.672;23.282;2024-01-30T03:13:19;96590.06;;;-1.85;52.24
35989;BME280;22064;42.672;23.282;2024-01-30T03:15:45;96579.09;;;-1.61;52.02
35989;BME280;22064;42.672;23.282;2024-01-30T03:18:11;96555.31;;;-1.98;51.76
35989;BME280;22064;42.672;23.282;2024-01-30T03:20:37;96585.94;;;-1.95;52.08
35989;BME280;22064;42.672;23.282;2024-01-30T03:23:03;96577.56;;;-1.97;51.89
35989;BME280;22064;42.672;23.282;2024-01-30T03:25:29;96591.16;;;-1.87;52.01
35989;BME280;22064;42.672;23.282;2024-01-30T03:27:54;96589.50;;;-2.14;51.87
35989;BME280;22064;42.672;23.282;2024-01-30T03:30:21;96577.59;;;-2.33;52.07
35989;BME280;22064;42.672;23.282;2024-01-30T03:32:47;96578.34;;;-2.23;52.22
35989;BME280;22064;42.672;23.282;2024-01-30T03:35:12;96576.19;;;-2.28;52.07
35989;BME280;22064;42.672;23.282;2024-01-30T03:37:38;96566.19;;;-2.31;51.86
35989;BME280;22064;42.672;23.282;2024-01-30T03:40:04;96578.16;;;-2.04;51.91
35989;BME280;22064;42.672;23.282;2024-01-30T03:42:30;96572.66;;;-2.27;51.88
35989;BME280;22064;42.672;23.282;2024-01-30T03:44:56;96573.25;;;-2.15;51.40
35989;BME280;22064;42.672;23.282;2024-01-30T03:47:22;96573.44;;;-2.08;51.01
35989;BME280;22064;42.672;23.282;2024-01-30T03:49:48;96572.81;;;-1.84;51.36
35989;BME280;22064;42.672;23.282;2024-01-30T03:52:14;96561.91;;;-2.04;50.80
35989;BME280;22064;42.672;23.282;2024-01-30T03:54:40;96565.81;;;-2.00;50.40
35989;BME280;22064;42.672;23.282;2024-01-30T03:57:05;96571.31;;;-1.95;50.20
35989;BME280;22064;42.672;23.282;2024-01-30T03:59:31;96571.34;;;-2.13;49.78
35989;BME280;22064;42.672;23.282;2024-01-30T04:01:57;96561.16;;;-1.96;49.57
35989;BME280;22064;42.672;23.282;2024-01-30T04:04:23;96567.47;;;-1.91;49.85
35989;BME280;22064;42.672;23.282;2024-01-30T04:06:49;96512.91;;;-2.38;49.83
35989;BME280;22064;42.672;23.282;2024-01-30T04:09:14;96563.00;;;-2.07;50.07
35989;BME280;22064;42.672;23.282;2024-01-30T04:11:41;96563.72;;;-1.96;50.07
35989;BME280;22064;42.672;23.282;2024-01-30T04:14:08;96563.13;;;-1.64;49.36
35989;BME280;22064;42.672;23.282;2024-01-30T04:16:34;96559.75;;;-1.91;49.57
35989;BME280;22064;42.672;23.282;2024-01-30T04:19:00;96566.63;;;-2.17;50.25
35989;BME280;22064;42.672;23.282;2024-01-30T04:21:26;96564.91;;;-1.91;49.83
35989;BME280;22064;42.672;23.282;2024-01-30T04:23:53;96561.84;;;-1.86;49.76
35989;BME280;22064;42.672;23.282;2024-01-30T04:26:19;96561.00;;;-1.69;50.01
35989;BME280;22064;42.672;23.282;2024-01-30T04:28:45;96571.97;;;-1.67;49.14
35989;BME280;22064;42.672;23.282;2024-01-30T04:31:11;96569.44;;;-1.59;49.86
35989;BME280;22064;42.672;23.282;2024-01-30T04:33:37;96553.22;;;-1.77;49.21
35989;BME280;22064;42.672;23.282;2024-01-30T04:36:03;96579.19;;;-1.96;49.70
35989;BME280;22064;42.672;23.282;2024-01-30T04:38:31;96570.28;;;-2.02;50.06
35989;BME280;22064;42.672;23.282;2024-01-30T04:40:57;96577.97;;;-1.84;49.95
35989;BME280;22064;42.672;23.282;2024-01-30T04:43:23;96576.31;;;-2.11;50.03
35989;BME280;22064;42.672;23.282;2024-01-30T04:45:49;96578.81;;;-2.02;49.99
35989;BME280;22064;42.672;23.282;2024-01-30T04:48:15;96579.97;;;-1.96;49.86
35989;BME280;22064;42.672;23.282;2024-01-30T04:50:41;96577.88;;;-2.00;49.95
35989;BME280;22064;42.672;23.282;2024-01-30T04:53:07;96593.16;;;-1.99;49.60
35989;BME280;22064;42.672;23.282;2024-01-30T04:55:34;96596.19;;;-2.04;49.65
35989;BME280;22064;42.672;23.282;2024-01-30T04:58:01;96594.00;;;-2.16;49.74
35989;BME280;22064;42.672;23.282;2024-01-30T05:00:27;96602.66;;;-2.17;49.98
35989;BME280;22064;42.672;23.282;2024-01-30T05:02:55;96599.72;;;-2.05;49.60
35989;BME280;22064;42.672;23.282;2024-01-30T05:05:21;96602.91;;;-1.67;48.85
35989;BME280;22064;42.672;23.282;2024-01-30T05:07:47;96607.13;;;-2.02;49.67
35989;BME280;22064;42.672;23.282;2024-01-30T05:10:13;96597.97;;;-2.40;50.17
35989;BME280;22064;42.672;23.282;2024-01-30T05:12:40;96601.13;;;-2.28;50.67
35989;BME280;22064;42.672;23.282;2024-01-30T05:15:06;96600.31;;;-2.46;50.82
35989;BME280;22064;42.672;23.282;2024-01-30T05:17:32;96595.25;;;-2.38;50.65
35989;BME280;22064;42.672;23.282;2024-01-30T05:19:59;96604.97;;;-2.50;51.16
35989;BME280;22064;42.672;23.282;2024-01-30T05:22:25;96612.38;;;-2.65;51.68
35989;BME280;22064;42.672;23.282;2024-01-30T05:24:51;96608.56;;;-2.25;51.14
35989;BME280;22064;42.672;23.282;2024-01-30T05:27:16;96612.16;;;-2.54;51.32
35989;BME280;22064;42.672;23.282;2024-01-30T05:29:42;96600.47;;;-2.48;51.84
35989;BME280;22064;42.672;23.282;2024-01-30T05:32:08;96599.38;;;-2.45;51.47
35989;BME280;22064;42.672;23.282;2024-01-30T05:34:35;96599.88;;;-2.42;51.25
35989;BME280;22064;42.672;23.282;2024-01-30T05:37:01;96598.88;;;-2.31;51.04
35989;BME280;22064;42.672;23.282;2024-01-30T05:39:27;96589.06;;;-2.28;51.03
35989;BME280;22064;42.672;23.282;2024-01-30T05:41:53;96600.47;;;-2.66;51.84
35989;BME280;22064;42.672;23.282;2024-01-30T05:44:19;96609.38;;;-2.42;51.51
35989;BME280;22064;42.672;23.282;2024-01-30T05:46:45;96594.47;;;-2.84;51.84
35989;BME280;22064;42.672;23.282;2024-01-30T05:49:11;96607.06;;;-2.81;51.98
35989;BME280;22064;42.672;23.282;2024-01-30T05:51:37;96616.13;;;-2.59;51.93
35989;BME280;22064;42.672;23.282;2024-01-30T05:54:03;96604.63;;;-2.83;52.49
35989;BME280;22064;42.672;23.282;2024-01-30T05:56:30;96597.06;;;-2.84;52.52
35989;BME280;22064;42.672;23.282;2024-01-30T05:58:56;96602.78;;;-2.90;52.24
35989;BME280;22064;42.672;23.282;2024-01-30T06:01:21;96596.84;;;-2.55;52.19
35989;BME280;22064;42.672;23.282;2024-01-30T06:03:47;96597.47;;;-2.43;51.67
35989;BME280;22064;42.672;23.282;2024-01-30T06:06:13;96605.84;;;-2.41;51.86
35989;BME280;22064;42.672;23.282;2024-01-30T06:08:39;96584.16;;;-2.57;51.58
35989;BME280;22064;42.672;23.282;2024-01-30T06:11:05;96605.97;;;-2.61;51.69
35989;BME280;22064;42.672;23.282;2024-01-30T06:13:31;96604.34;;;-2.62;51.30
35989;BME280;22064;42.672;23.282;2024-01-30T06:15:57;96609.97;;;-2.76;51.64
35989;BME280;22064;42.672;23.282;2024-01-30T06:18:23;96605.69;;;-3.03;52.07
35989;BME280;22064;42.672;23.282;2024-01-30T06:20:49;96612.03;;;-3.07;52.29
35989;BME280;22064;42.672;23.282;2024-01-30T06:23:14;96610.50;;;-2.90;52.17
35989;BME280;22064;42.672;23.282;2024-01-30T06:25:40;96601.22;;;-2.83;52.30
35989;BME280;22064;42.672;23.282;2024-01-30T06:28:06;96602.19;;;-2.84;51.43
35989;BME280;22064;42.672;23.282;2024-01-30T06:30:32;96617.06;;;-3.06;51.34
35989;BME280;22064;42.672;23.282;2024-01-30T06:32:58;96608.00;;;-2.82;51.36
35989;BME280;22064;42.672;23.282;2024-01-30T06:35:24;96609.59;;;-2.54;51.23
35989;BME280;22064;42.672;23.282;2024-01-30T06:37:49;96604.75;;;-2.57;50.82
35989;BME280;22064;42.672;23.282;2024-01-30T06:40:15;96614.53;;;-2.24;50.29
35989;BME280;22064;42.672;23.282;2024-01-30T06:42:41;96622.28;;;-1.98;49.95
35989;BME280;22064;42.672;23.282;2024-01-30T06:45:07;96627.09;;;-2.04;49.61
35989;BME280;22064;42.672;23.282;2024-01-30T06:47:33;96610.19;;;-2.24;49.42
35989;BME280;22064;42.672;23.282;2024-01-30T06:49:59;96608.41;;;-2.06;48.75
35989;BME280;22064;42.672;23.282;2024-01-30T06:52:25;96620.97;;;-1.85;48.72
35989;BME280;22064;42.672;23.282;2024-01-30T06:54:51;96621.66;;;-2.00;49.05
35989;BME280;22064;42.672;23.282;2024-01-30T06:57:16;96617.38;;;-1.92;48.12
35989;BME280;22064;42.672;23.282;2024-01-30T06:59:42;96615.56;;;-1.73;48.30
35989;BME280;22064;42.672;23.282;2024-01-30T07:02:10;96628.13;;;-1.70;47.65
35989;BME280;22064;42.672;23.282;2024-01-30T07:04:36;96627.38;;;-1.45;47.48
35989;BME280;22064;42.672;23.282;2024-01-30T07:07:03;96624.13;;;-1.47;47.44
35989;BME280;22064;42.672;23.282;2024-01-30T07:09:31;96636.22;;;-1.13;47.29
35989;BME280;22064;42.672;23.282;2024-01-30T07:11:57;96626.41;;;-1.10;46.73
35989;BME280;22064;42.672;23.282;2024-01-30T07:14:24;96618.94;;;-1.21;46.38
35989;BME280;22064;42.672;23.282;2024-01-30T07:16:50;96623.25;;;-0.95;46.11
35989;BME280;22064;42.672;23.282;2024-01-30T07:19:16;96630.66;;;-0.50;45.66
35989;BME280;22064;42.672;23.282;2024-01-30T07:21:42;96625.13;;;-0.63;45.16
35989;BME280;22064;42.672;23.282;2024-01-30T07:24:08;96630.34;;;-0.97;45.99
35989;BME280;22064;42.672;23.282;2024-01-30T07:26:34;96636.41;;;-1.06;45.25
35989;BME280;22064;42.672;23.282;2024-01-30T07:29:01;96628.84;;;-0.66;44.55
35989;BME280;22064;42.672;23.282;2024-01-30T07:31:27;96619.44;;;-0.75;44.58
35989;BME280;22064;42.672;23.282;2024-01-30T07:33:53;96626.84;;;-0.80;44.78
35989;BME280;22064;42.672;23.282;2024-01-30T07:36:20;96620.94;;;-0.64;44.42
35989;BME280;22064;42.672;23.282;2024-01-30T07:38:46;96615.63;;;-0.63;43.52
35989;BME280;22064;42.672;23.282;2024-01-30T07:41:11;96616.72;;;-0.73;43.72
35989;BME280;22064;42.672;23.282;2024-01-30T07:43:38;96611.88;;;-0.68;43.29
35989;BME280;22064;42.672;23.282;2024-01-30T07:46:04;96612.75;;;-0.51;43.40
35989;BME280;22064;42.672;23.282;2024-01-30T07:48:34;96614.50;;;-0.52;43.61
35989;BME280;22064;42.672;23.282;2024-01-30T07:51:00;96599.97;;;-0.53;42.91
35989;BME280;22064;42.672;23.282;2024-01-30T07:53:26;96618.59;;;-0.08;42.64
35989;BME280;22064;42.672;23.282;2024-01-30T07:55:52;96617.47;;;-0.22;42.41
35989;BME280;22064;42.672;23.282;2024-01-30T07:58:18;96622.47;;;0.04;42.00
35989;BME280;22064;42.672;23.282;2024-01-30T08:00:44;96614.38;;;-0.18;42.40
35989;BME280;22064;42.672;23.282;2024-01-30T08:03:16;96615.50;;;-0.45;43.31
35989;BME280;22064;42.672;23.282;2024-01-30T08:05:43;96609.72;;;-0.22;42.44
35989;BME280;22064;42.672;23.282;2024-01-30T08:08:09;96612.44;;;-0.40;42.68
35989;BME280;22064;42.672;23.282;2024-01-30T08:10:35;96606.91;;;-0.61;43.67
35989;BME280;22064;42.672;23.282;2024-01-30T08:13:01;96609.84;;;-0.48;42.93
35989;BME280;22064;42.672;23.282;2024-01-30T08:15:27;96619.84;;;-0.37;42.53
35989;BME280;22064;42.672;23.282;2024-01-30T08:17:53;96614.63;;;-0.61;42.71
35989;BME280;22064;42.672;23.282;2024-01-30T08:20:25;96608.25;;;-0.33;42.82
35989;BME280;22064;42.672;23.282;2024-01-30T08:22:51;96612.56;;;-0.50;42.77
35989;BME280;22064;42.672;23.282;2024-01-30T08:25:17;96611.97;;;-0.27;43.47
35989;BME280;22064;42.672;23.282;2024-01-30T08:27:43;96615.03;;;-0.15;42.41
35989;BME280;22064;42.672;23.282;2024-01-30T08:30:09;96608.25;;;0.16;42.05
35989;BME280;22064;42.672;23.282;2024-01-30T08:32:35;96615.03;;;-0.32;42.80
35989;BME280;22064;42.672;23.282;2024-01-30T08:35:01;96615.69;;;-0.13;42.76
35989;BME280;22064;42.672;23.282;2024-01-30T08:37:30;96616.66;;;-0.06;42.22
35989;BME280;22064;42.672;23.282;2024-01-30T08:39:55;96600.84;;;-0.11;42.26
35989;BME280;22064;42.672;23.282;2024-01-30T08:42:22;96627.81;;;-0.14;42.01
35989;BME280;22064;42.672;23.282;2024-01-30T08:44:51;96626.53;;;0.06;42.47
35989;BME280;22064;42.672;23.282;2024-01-30T08:47:18;96622.47;;;0.28;41.84
35989;BME280;22064;42.672;23.282;2024-01-30T08:49:44;96626.34;;;0.41;41.77
35989;BME280;22064;42.672;23.282;2024-01-30T08:52:11;96620.03;;;0.60;41.25
35989;BME280;22064;42.672;23.282;2024-01-30T08:54:37;96626.38;;;0.49;41.78
35989;BME280;22064;42.672;23.282;2024-01-30T08:57:03;96622.16;;;0.40;41.51
35989;BME280;22064;42.672;23.282;2024-01-30T08:59:30;96631.88;;;0.29;41.53
35989;BME280;22064;42.672;23.282;2024-01-30T09:01:55;96631.06;;;0.04;42.22
35989;BME280;22064;42.672;23.282;2024-01-30T09:04:23;96633.47;;;0.14;42.29
35989;BME280;22064;42.672;23.282;2024-01-30T09:06:49;96636.03;;;-0.27;42.56
35989;BME280;22064;42.672;23.282;2024-01-30T09:09:16;96632.81;;;-0.04;41.92
35989;BME280;22064;42.672;23.282;2024-01-30T09:11:42;96639.59;;;-0.20;42.60
35989;BME280;22064;42.672;23.282;2024-01-30T09:14:08;96624.75;;;0.15;42.68
35989;BME280;22064;42.672;23.282;2024-01-30T09:16:35;96632.16;;;0.51;42.50
35989;BME280;22064;42.672;23.282;2024-01-30T09:19:01;96638.00;;;0.61;42.68
35989;BME280;22064;42.672;23.282;2024-01-30T09:21:27;96632.44;;;0.81;41.88
35989;BME280;22064;42.672;23.282;2024-01-30T09:23:54;96628.25;;;0.80;42.99
35989;BME280;22064;42.672;23.282;2024-01-30T09:26:20;96616.66;;;0.18;43.83
35989;BME280;22064;42.672;23.282;2024-01-30T09:28:46;96615.53;;;0.54;43.89
35989;BME280;22064;42.672;23.282;2024-01-30T09:31:12;96619.25;;;0.43;43.53
35989;BME280;22064;42.672;23.282;2024-01-30T09:33:38;96615.22;;;0.24;43.27
35989;BME280;22064;42.672;23.282;2024-01-30T09:36:07;96614.41;;;0.32;42.94
35989;BME280;22064;42.672;23.282;2024-01-30T09:38:33;96610.84;;;0.49;43.87
35989;BME280;22064;42.672;23.282;2024-01-30T09:41:03;96618.13;;;0.21;43.23
35989;BME280;22064;42.672;23.282;2024-01-30T09:43:33;96608.75;;;0.36;43.08
35989;BME280;22064;42.672;23.282;2024-01-30T09:46:02;96611.50;;;0.02;43.73
35989;BME280;22064;42.672;23.282;2024-01-30T09:48:30;96617.31;;;0.37;43.35
35989;BME280;22064;42.672;23.282;2024-01-30T09:50:57;96610.38;;;0.13;43.47
35989;BME280;22064;42.672;23.282;2024-01-30T09:53:23;96610.03;;;-0.25;44.57
35989;BME280;22064;42.672;23.282;2024-01-30T09:55:50;96605.63;;;-0.49;44.43
35989;BME280;22064;42.672;23.282;2024-01-30T09:58:16;96594.16;;;-0.55;44.73
35989;BME280;22064;42.672;23.282;2024-01-30T10:00:43;96606.56;;;-0.58;45.15
35989;BME280;22064;42.672;23.282;2024-01-30T10:03:09;96581.44;;;-0.40;44.04
35989;BME280;22064;42.672;23.282;2024-01-30T10:05:36;96592.66;;;-0.82;45.12
35989;BME280;22064;42.672;23.282;2024-01-30T10:08:08;96600.19;;;-0.22;44.64
35989;BME280;22064;42.672;23.282;2024-01-30T10:10:34;96605.66;;;-0.25;44.31
35989;BME280;22064;42.672;23.282;2024-01-30T10:13:01;96592.78;;;-0.00;44.14
35989;BME280;22064;42.672;23.282;2024-01-30T10:15:28;96589.06;;;-0.14;44.33
35989;BME280;22064;42.672;23.282;2024-01-30T10:17:54;96589.84;;;-0.05;44.33
35989;BME280;22064;42.672;23.282;2024-01-30T10:20:19;96594.56;;;-0.01;44.16
35989;BME280;22064;42.672;23.282;2024-01-30T10:22:48;96584.69;;;-0.05;44.40
35989;BME280;22064;42.672;23.282;2024-01-30T10:25:15;96588.66;;;-0.68;44.28
35989;BME280;22064;42.672;23.282;2024-01-30T10:27:40;96583.06;;;-0.39;44.53
35989;BME280;22064;42.672;23.282;2024-01-30T10:30:07;96594.88;;;0.04;44.46
35989;BME280;22064;42.672;23.282;2024-01-30T10:32:33;96590.66;;;0.03;43.90
35989;BME280;22064;42.672;23.282;2024-01-30T10:34:59;96577.28;;;-0.00;43.81
35989;BME280;22064;42.672;23.282;2024-01-30T10:37:25;96596.44;;;0.38;43.68
35989;BME280;22064;42.672;23.282;2024-01-30T10:39:53;96593.69;;;0.56;42.22
35989;BME280;22064;42.672;23.282;2024-01-30T10:42:26;96561.75;;;0.33;43.11
35989;BME280;22064;42.672;23.282;2024-01-30T10:45:11;96594.69;;;0.55;42.58
35989;BME280;22064;42.672;23.282;2024-01-30T10:47:54;96582.94;;;0.84;42.69
35989;BME280;22064;42.672;23.282;2024-01-30T10:50:24;96573.84;;;0.96;42.55
35989;BME280;22064;42.672;23.282;2024-01-30T10:52:52;96572.03;;;1.05;42.17
35989;BME280;22064;42.672;23.282;2024-01-30T10:55:18;96578.38;;;0.55;42.33
35989;BME280;22064;42.672;23.282;2024-01-30T10:57:44;96569.97;;;0.44;42.73
35989;BME280;22064;42.672;23.282;2024-01-30T11:00:12;96573.47;;;0.60;42.56
35989;BME280;22064;42.672;23.282;2024-01-30T11:02:40;96561.28;;;0.85;41.93
35989;BME280;22064;42.672;23.282;2024-01-30T11:05:08;96556.84;;;0.54;42.19
35989;BME280;22064;42.672;23.282;2024-01-30T11:07:34;96554.13;;;0.47;42.77
35989;BME280;22064;42.672;23.282;2024-01-30T11:10:02;96559.13;;;0.41;43.11
35989;BME280;22064;42.672;23.282;2024-01-30T11:12:30;96543.63;;;0.33;42.89
35989;BME280;22064;42.672;23.282;2024-01-30T11:18:00;96551.34;;;0.57;43.02
35989;BME280;22064;42.672;23.282;2024-01-30T11:20:29;96543.22;;;0.77;42.77
35989;BME280;22064;42.672;23.282;2024-01-30T11:22:57;96550.13;;;0.76;42.63
35989;BME280;22064;42.672;23.282;2024-01-30T11:25:24;96542.50;;;0.51;42.48
35989;BME280;22064;42.672;23.282;2024-01-30T11:27:52;96542.16;;;0.94;42.49
35989;BME280;22064;42.672;23.282;2024-01-30T11:30:29;96545.25;;;0.89;42.13
35989;BME280;22064;42.672;23.282;2024-01-30T11:35:38;96547.88;;;0.81;42.61
35989;BME280;22064;42.672;23.282;2024-01-30T11:38:09;96546.03;;;0.98;42.37
35989;BME280;22064;42.672;23.282;2024-01-30T11:40:37;96543.75;;;0.64;42.86
35989;BME280;22064;42.672;23.282;2024-01-30T11:43:04;96542.34;;;0.92;42.17
35989;BME280;22064;42.672;23.282;2024-01-30T11:45:31;96547.09;;;1.35;41.84
35989;BME280;22064;42.672;23.282;2024-01-30T11:47:58;96539.59;;;1.71;41.12
35989;BME280;22064;42.672;23.282;2024-01-30T11:50:37;96532.59;;;1.95;40.77
35989;BME280;22064;42.672;23.282;2024-01-30T11:53:04;96538.59;;;1.95;40.90
35989;BME280;22064;42.672;23.282;2024-01-30T11:55:30;96527.28;;;2.26;40.55
35989;BME280;22064;42.672;23.282;2024-01-30T11:58:00;96537.44;;;1.75;40.88
35989;BME280;22064;42.672;23.282;2024-01-30T12:00:26;96523.84;;;1.73;40.83
35989;BME280;22064;42.672;23.282;2024-01-30T12:02:53;96513.72;;;1.63;40.94
35989;BME280;22064;42.672;23.282;2024-01-30T12:05:23;96519.25;;;1.37;41.08
35989;BME280;22064;42.672;23.282;2024-01-30T12:07:50;96514.78;;;1.31;41.13
35989;BME280;22064;42.672;23.282;2024-01-30T12:10:15;96501.28;;;0.89;42.00
35989;BME280;22064;42.672;23.282;2024-01-30T12:12:44;96493.38;;;0.83;42.27
35989;BME280;22064;42.672;23.282;2024-01-30T12:15:11;96497.22;;;1.18;41.63
35989;BME280;22064;42.672;23.282;2024-01-30T12:17:38;96495.16;;;1.36;41.96
35989;BME280;22064;42.672;23.282;2024-01-30T12:20:07;96495.13;;;1.59;41.48
35989;BME280;22064;42.672;23.282;2024-01-30T12:22:36;96488.19;;;1.37;41.41
35989;BME280;22064;42.672;23.282;2024-01-30T12:25:16;96499.81;;;1.41;41.66
35989;BME280;22064;42.672;23.282;2024-01-30T12:27:43;96484.38;;;1.71;41.15
35989;BME280;22064;42.672;23.282;2024-01-30T12:30:11;96462.09;;;1.38;41.53
35989;BME280;22064;42.672;23.282;2024-01-30T12:32:41;96480.44;;;1.37;41.67
35989;BME280;22064;42.672;23.282;2024-01-30T12:35:19;96486.75;;;1.34;41.87
35989;BME280;22064;42.672;23.282;2024-01-30T12:37:46;96488.13;;;0.99;42.03
35989;BME280;22064;42.672;23.282;2024-01-30T12:40:14;96468.66;;;1.03;41.96
35989;BME280;22064;42.672;23.282;2024-01-30T12:42:46;96476.47;;;1.26;41.85
35989;BME280;22064;42.672;23.282;2024-01-30T12:45:14;96474.59;;;1.35;41.45
35989;BME280;22064;42.672;23.282;2024-01-30T12:47:41;96475.63;;;1.26;41.24
35989;BME280;22064;42.672;23.282;2024-01-30T12:50:07;96473.44;;;1.37;41.55
35989;BME280;22064;42.672;23.282;2024-01-30T12:52:33;96485.41;;;1.61;41.63
35989;BME280;22064;42.672;23.282;2024-01-30T12:54:58;96464.91;;;1.14;41.58